Thunder radar more information blitzortung!


Radar de pluja more information rain snow radar


Visita la nostra xarxa de llocs de meteo:

Template documentation
and downloads

And another site



Wind From: 11-12-2017 11:00 Until: 14:59 warning for: Wind Level: Yellow info button

Pagina Historial Weather Underground text

Diari Resum Juliol 20, 2017 Unitats:  Imperial    Mètric   Tant
« Previous Dia
SegĂźent Dia »
Diari Setmana Mensual Anual Personalitzada
  Maxima: Minima: Media:
Temperatura: 86 °F 70.7 °F 79.2 °F
Punt de rosada: 66.7 °F 59.2 °F 62.1 °F
Humitat: 77 % 44 % 56 %
Wind Speed: 12.7 mph 0 mph 5.3 mph
RĂ fegues de vent: 13 mph - -
Vent:- - ESE
Pression baro: 29.9 in 29.8 in -
Precipitacions: 0 in    
Historical Graphs
 
 
Dades de taula per Juliol 20, 2017
Temps Temperatura Punt de rosada Pression baro Vent Wind Speed RĂ fegues de vent Humitat Rainfall Rate (Hourly)
00:00 74.5 °F 66.7 °F 29.8 in NE 3 mph 6 mph 77 % 0 in
00:05 74.3 °F 66.6 °F 29.8 in NE 3 mph 7 mph 77 % 0 in
00:15 72.5 °F 64 °F 29.8 in NE 2 mph 2 mph 75 % 0 in
00:25 72.5 °F 64 °F 29.8 in NE 3 mph 4 mph 75 % 0 in
00:35 72.5 °F 64.6 °F 29.8 in ENE 5 mph 6 mph 76 % 0 in
00:45 72.5 °F 64.6 °F 29.8 in ENE 3 mph 4 mph 76 % 0 in
00:55 72.5 °F 64 °F 29.8 in NE 3 mph 6 mph 75 % 0 in
01:05 72.5 °F 64 °F 29.8 in NE 3 mph 5 mph 75 % 0 in
01:15 72.5 °F 64 °F 29.8 in NE 3 mph 4 mph 75 % 0 in
01:25 72.5 °F 64 °F 29.8 in East 2 mph 4 mph 75 % 0 in
01:35 72.5 °F 64 °F 29.8 in ENE 2 mph 3 mph 75 % 0 in
01:45 72.3 °F 63.9 °F 29.8 in NE 2 mph 3 mph 75 % 0 in
01:55 72.5 °F 64.6 °F 29.8 in NE 2 mph 5 mph 76 % 0 in
02:05 72.5 °F 64 °F 29.8 in NE 3 mph 4 mph 75 % 0 in
02:15 71.4 °F 62.8 °F 29.8 in NNE 3 mph 3 mph 74 % 0 in
02:25 71.2 °F 62.1 °F 29.8 in Calm   4 mph 73 % 0 in
02:35 71.6 °F 61.7 °F 29.8 in NNE 2 mph 2 mph 71 % 0 in
02:45 71.4 °F 61.9 °F 29.8 in NE 3 mph 3 mph 72 % 0 in
02:55 72 °F 62.1 °F 29.8 in NE 2 mph 4 mph 71 % 0 in
03:05 72.9 °F 62.4 °F 29.8 in NE 3 mph 4 mph 70 % 0 in
03:15 73 °F 62.2 °F 29.8 in NNE 3 mph 5 mph 69 % 0 in
03:25 74.3 °F 63.5 °F 29.8 in NE 1 mph 3 mph 69 % 0 in
03:35 74.7 °F 63.3 °F 29.8 in NE 2 mph 3 mph 68 % 0 in
03:45 75.4 °F 63.1 °F 29.8 in NNE 1 mph 2 mph 66 % 0 in
03:55 75.4 °F 62.8 °F 29.8 in NE 2 mph 3 mph 65 % 0 in
04:05 76.3 °F 63.7 °F 29.8 in ENE 2 mph 2 mph 65 % 0 in
04:15 78.1 °F 64.6 °F 29.8 in SE 1 mph 3 mph 63 % 0 in
04:25 78.6 °F 64.6 °F 29.9 in ESE 2 mph 3 mph 62 % 0 in
04:35 78.4 °F 64.2 °F 29.9 in South 3 mph 3 mph 62 % 0 in
04:45 79 °F 64.4 °F 29.8 in SSW 2 mph 3 mph 61 % 0 in
04:55 79.2 °F 64 °F 29.9 in South 1 mph 3 mph 60 % 0 in
05:05 79.9 °F 64.8 °F 29.9 in SE 3 mph 4 mph 60 % 0 in
05:15 79.7 °F 63.7 °F 29.8 in ESE 3 mph 5 mph 58 % 0 in
05:25 80.8 °F 64 °F 29.9 in ESE 3 mph 6 mph 57 % 0 in
05:35 80.6 °F 63 °F 29.9 in East 2 mph 4 mph 55 % 0 in
05:40 80.8 °F 63.1 °F 29.8 in East 1 mph 4 mph 55 % 0 in
10:40 80.8 °F 62.6 °F 29.8 in ESE 2.2 mph 3.3 mph 54 % 0 in
10:45 81.3 °F 62.6 °F 29.8 in SSE 2.3 mph 2.6 mph 53 % 0 in
10:50 82.4 °F 64 °F 29.8 in ENE 2.3 mph 2.3 mph 54 % 0 in
10:56 81.9 °F 62.4 °F 29.8 in West 5.8 mph 5.8 mph 52 % 0 in
11:01 81.9 °F 63.1 °F 29.8 in NE 4.6 mph 4.6 mph 53 % 0 in
11:06 82.4 °F 63.5 °F 29.8 in SE 2.6 mph 2.6 mph 53 % 0 in
11:11 82.4 °F 63.5 °F 29.8 in NNE 3.8 mph 3.8 mph 53 % 0 in
11:16 82.9 °F 63.5 °F 29.8 in East 3.5 mph 3.5 mph 52 % 0 in
11:21 82.9 °F 63.5 °F 29.8 in ESE 7.8 mph 7.8 mph 52 % 0 in
11:27 81.7 °F 62.2 °F 29.8 in East 6.9 mph 6.9 mph 52 % 0 in
11:32 82 °F 62.1 °F 29.8 in SE 8.1 mph 8.1 mph 51 % 0 in
11:37 81.9 °F 62.4 °F 29.8 in NNE 4.6 mph 4.6 mph 52 % 0 in
11:42 82.6 °F 62.6 °F 29.8 in SE 4.6 mph 4.6 mph 51 % 0 in
11:47 82.8 °F 62.8 °F 29.8 in SSE 5.8 mph 5.8 mph 51 % 0 in
11:52 82.4 °F 62.4 °F 29.8 in ENE 3.5 mph 3.5 mph 51 % 0 in
11:57 82.8 °F 63.3 °F 29.8 in ENE 3.5 mph 3.5 mph 52 % 0 in
12:02 83.7 °F 63.7 °F 29.8 in WSW 3.5 mph 3.5 mph 51 % 0 in
12:07 84.2 °F 63.5 °F 29.8 in ESE 3.5 mph 3.5 mph 50 % 0 in
12:12 84 °F 63.9 °F 29.8 in NNE 3.5 mph 3.5 mph 51 % 0 in
12:17 84.6 °F 63.3 °F 29.8 in ESE 7.8 mph 7.8 mph 49 % 0 in
12:22 83.1 °F 63.1 °F 29.8 in East 5.8 mph 5.8 mph 51 % 0 in
12:27 83.5 °F 63.3 °F 29.8 in ESE 10 mph 10 mph 51 % 0 in
12:33 84.7 °F 64 °F 29.8 in ESE 4.6 mph 4.6 mph 50 % 0 in
12:38 83.8 °F 63.9 °F 29.8 in East 3.5 mph 4.7 mph 51 % 0 in
12:43 83.7 °F 63.7 °F 29.8 in ESE 5.8 mph 5.8 mph 51 % 0 in
12:48 84.4 °F 63.7 °F 29.8 in South 5.8 mph 5.8 mph 50 % 0 in
12:53 84.6 °F 64.4 °F 29.8 in South 8.1 mph 8.1 mph 51 % 0 in
12:58 83.8 °F 63.9 °F 29.8 in ESE 9.2 mph 9.2 mph 51 % 0 in
13:04 83.1 °F 63.1 °F 29.8 in ESE 8.1 mph 8.1 mph 51 % 0 in
13:09 83.8 °F 63.9 °F 29.8 in ESE 8.5 mph 8.5 mph 51 % 0 in
13:14 84.2 °F 63.5 °F 29.8 in ESE 4.6 mph 4.6 mph 50 % 0 in
13:19 83.1 °F 63.1 °F 29.8 in South 9.2 mph 9.2 mph 51 % 0 in
13:24 84 °F 63.9 °F 29.8 in ESE 8.7 mph 8.7 mph 51 % 0 in
13:29 82.8 °F 62.8 °F 29.8 in SE 9.2 mph 9.2 mph 51 % 0 in
13:34 82.6 °F 63.1 °F 29.8 in North 5.8 mph 5.8 mph 52 % 0 in
13:40 83.3 °F 63.9 °F 29.8 in SSE 3.5 mph 3.5 mph 52 % 0 in
13:45 83.3 °F 63.9 °F 29.8 in ESE 9.2 mph 9.2 mph 52 % 0 in
13:50 83.1 °F 63.7 °F 29.8 in ESE 8.1 mph 8.1 mph 52 % 0 in
13:55 83.8 °F 64.2 °F 29.8 in ESE 8.1 mph 8.1 mph 52 % 0 in
14:00 84.9 °F 64.2 °F 29.8 in ESE 5.8 mph 5.8 mph 50 % 0 in
14:05 85.3 °F 64.6 °F 29.8 in East 8.7 mph 8.7 mph 50 % 0 in
14:10 84.4 °F 63.7 °F 29.8 in ESE 6.9 mph 6.9 mph 50 % 0 in
14:15 84.9 °F 64.2 °F 29.8 in SE 4.6 mph 4.6 mph 50 % 0 in
14:20 84.9 °F 64.2 °F 29.8 in ESE 12.7 mph 12.7 mph 50 % 0 in
14:25 84.7 °F 64 °F 29.8 in East 6 mph 10 mph 50 % 0 in
14:30 84.4 °F 64.2 °F 29.8 in East 5 mph 13 mph 51 % 0 in
14:35 84.4 °F 63.7 °F 29.8 in ESE 8 mph 13 mph 50 % 0 in
14:40 83.7 °F 64.2 °F 29.8 in SE 11.5 mph 11.5 mph 52 % 0 in
14:46 84.2 °F 64 °F 29.8 in ESE 10.4 mph 10.4 mph 51 % 0 in
14:51 84.4 °F 64.2 °F 29.8 in East 8.1 mph 8.1 mph 51 % 0 in
14:56 84.2 °F 64 °F 29.8 in ENE 8.1 mph 8.1 mph 51 % 0 in
15:02 84.2 °F 64 °F 29.8 in SSW 5.8 mph 5.8 mph 51 % 0 in
15:07 85.1 °F 64.4 °F 29.8 in ENE 4.6 mph 4.6 mph 50 % 0 in
15:12 86 °F 65.1 °F 29.8 in ESE 10.5 mph 10.5 mph 50 % 0 in
15:17 84.7 °F 64 °F 29.8 in ESE 11.5 mph 11.5 mph 50 % 0 in
15:18 84.7 °F 64 °F 29.8 in East 11.5 mph 11.5 mph 50 % 0 in
15:23 84.7 °F 64 °F 29.8 in East 11.5 mph 11.5 mph 50 % 0 in
15:28 84.4 °F 63.1 °F 29.8 in East 11.5 mph 11.5 mph 49 % 0 in
15:33 83.8 °F 63.9 °F 29.8 in ESE 12.5 mph 12.5 mph 51 % 0 in
15:38 83.8 °F 63.1 °F 29.8 in SE 6.9 mph 6.9 mph 50 % 0 in
15:43 84.4 °F 63.1 °F 29.8 in ESE 8.1 mph 8.1 mph 49 % 0 in
15:48 84.2 °F 63 °F 29.8 in East 10.9 mph 10.9 mph 49 % 0 in
15:53 84.4 °F 63.1 °F 29.8 in East 9.2 mph 9.2 mph 49 % 0 in
15:58 84.2 °F 63 °F 29.8 in ESE 12.7 mph 12.7 mph 49 % 0 in
16:03 84.6 °F 62.8 °F 29.8 in ENE 9.2 mph 9.2 mph 48 % 0 in
16:09 84.2 °F 63 °F 29.8 in ENE 11.5 mph 11.5 mph 49 % 0 in
16:14 84.6 °F 62.8 °F 29.8 in SE 11.5 mph 11.5 mph 48 % 0 in
16:19 83.7 °F 62.4 °F 29.8 in East 9.2 mph 9.2 mph 49 % 0 in
16:24 84.7 °F 63.5 °F 29.8 in ENE 9.8 mph 9.8 mph 49 % 0 in
16:29 84.7 °F 63 °F 29.8 in SE 6.9 mph 6.9 mph 48 % 0 in
16:34 84.4 °F 62.4 °F 29.8 in ENE 6.9 mph 6.9 mph 48 % 0 in
16:39 84.2 °F 62.4 °F 29.8 in ESE 9.8 mph 9.8 mph 48 % 0 in
16:40 84.2 °F 62.4 °F 29.8 in ESE 10.9 mph 10.9 mph 48 % 0 in
16:45 84.4 °F 62.4 °F 29.8 in ESE 6.9 mph 6.9 mph 48 % 0 in
16:50 84.2 °F 62.4 °F 29.8 in East 8.1 mph 8.1 mph 48 % 0 in
16:55 84 °F 62.2 °F 29.8 in ENE 10.4 mph 10.4 mph 48 % 0 in
17:00 84.7 °F 62.2 °F 29.8 in East 9.2 mph 9.2 mph 47 % 0 in
17:05 85.1 °F 62.6 °F 29.8 in ENE 9.2 mph 9.2 mph 47 % 0 in
17:10 84.6 °F 61.5 °F 29.8 in ESE 6.9 mph 6.9 mph 46 % 0 in
17:15 84.2 °F 61.2 °F 29.8 in ENE 8.1 mph 8.1 mph 46 % 0 in
17:20 84.6 °F 61.5 °F 29.8 in ENE 8.1 mph 8.1 mph 46 % 0 in
17:25 84.9 °F 61.9 °F 29.8 in East 10.4 mph 10.4 mph 46 % 0 in
17:30 84.7 °F 61 °F 29.8 in SSE 11.5 mph 11.5 mph 45 % 0 in
17:35 84.4 °F 60.6 °F 29.8 in NE 10.4 mph 10.4 mph 45 % 0 in
17:40 84 °F 61 °F 29.8 in ESE 6.9 mph 6.9 mph 46 % 0 in
17:45 83.8 °F 60.3 °F 29.8 in South 10.4 mph 10.4 mph 45 % 0 in
17:51 84.4 °F 60.1 °F 29.8 in SE 8.1 mph 8.1 mph 44 % 0 in
17:56 83.7 °F 60.1 °F 29.8 in ESE 6.9 mph 6.9 mph 45 % 0 in
18:01 84.2 °F 59.9 °F 29.8 in SE 5.8 mph 5.8 mph 44 % 0 in
18:06 83.5 °F 59.4 °F 29.8 in ESE 10.4 mph 10.4 mph 44 % 0 in
18:11 83.7 °F 60.1 °F 29.8 in ENE 6.9 mph 6.9 mph 45 % 0 in
18:16 83.7 °F 59.4 °F 29.8 in ESE 10.4 mph 10.4 mph 44 % 0 in
18:21 83.3 °F 59.2 °F 29.8 in ESE 6.9 mph 6.9 mph 44 % 0 in
18:26 83.8 °F 60.3 °F 29.8 in East 12.3 mph 12.3 mph 45 % 0 in
18:31 83.3 °F 59.7 °F 29.8 in SSE 6 mph 6 mph 45 % 0 in
18:36 82.9 °F 59.4 °F 29.8 in SSE 9.2 mph 9.2 mph 45 % 0 in
18:42 83.1 °F 59.5 °F 29.8 in ESE 5.8 mph 5.8 mph 45 % 0 in
18:47 82.9 °F 59.4 °F 29.8 in ESE 8.1 mph 8.1 mph 45 % 0 in
18:52 82.6 °F 59.7 °F 29.8 in SE 12.3 mph 12.3 mph 46 % 0 in
18:57 82.6 °F 59.7 °F 29.8 in South 4.6 mph 4.6 mph 46 % 0 in
19:02 82.4 °F 59.5 °F 29.8 in ENE 5.8 mph 5.8 mph 46 % 0 in
19:07 81.7 °F 59.5 °F 29.8 in South 4.6 mph 4.6 mph 47 % 0 in
19:12 81.3 °F 59.7 °F 29.8 in ESE 6 mph 6 mph 48 % 0 in
19:15 73.8 °F 60.8 °F 29.8 in ENE 1 mph 2 mph 64 % 0 in
19:17 81.1 °F 59.5 °F 29.8 in SSE 6 mph 6 mph 48 % 0 in
19:22 80.8 °F 59.7 °F 29.8 in East 5.8 mph 5.8 mph 49 % 0 in
19:25 73.6 °F 60.6 °F 29.8 in Calm   2 mph 64 % 0 in
19:27 80.4 °F 60.1 °F 29.8 in SSE 8.1 mph 8.1 mph 50 % 0 in
19:32 80.1 °F 59.7 °F 29.8 in ESE 10.5 mph 10.5 mph 50 % 0 in
19:35 73.6 °F 60.6 °F 29.8 in Calm   2 mph 64 % 0 in
19:37 79.9 °F 60.1 °F 29.8 in ESE 5.8 mph 5.8 mph 51 % 0 in
19:42 79.3 °F 59.5 °F 29.8 in SSW 6.9 mph 6.9 mph 51 % 0 in
19:45 73.4 °F 60.4 °F 29.8 in Calm   1 mph 64 % 0 in
19:48 79.7 °F 60.4 °F 29.8 in East 5.8 mph 5.8 mph 52 % 0 in
19:53 79.5 °F 60.4 °F 29.8 in East 5.8 mph 5.8 mph 52 % 0 in
19:55 73.2 °F 60.6 °F 29.8 in Calm     65 % 0 in
19:56 79.5 °F 60.4 °F 29.8 in South 4.6 mph 4.6 mph 52 % 0 in
20:01 79.2 °F 60.6 °F 29.8 in SE 10.4 mph 10.4 mph 53 % 0 in
20:05 73 °F 60.6 °F 29.8 in Calm   1 mph 65 % 0 in
20:06 78.6 °F 60.1 °F 29.8 in SSE 5.9 mph 5.9 mph 53 % 0 in
20:11 78.3 °F 59.7 °F 29.8 in SSE 5.8 mph 5.8 mph 53 % 0 in
20:15 73 °F 61 °F 29.8 in Calm   1 mph 66 % 0 in
20:16 78.1 °F 60.1 °F 29.8 in ESE 5.8 mph 5.8 mph 54 % 0 in
20:21 77.9 °F 59.9 °F 29.8 in SE 5.8 mph 5.8 mph 54 % 0 in
20:25 73 °F 61 °F 29.8 in North 1 mph 1 mph 66 % 0 in
20:26 77.5 °F 59.5 °F 29.8 in South 10.4 mph 10.4 mph 54 % 0 in
20:32 77.5 °F 60.1 °F 29.8 in SE 4.6 mph 4.6 mph 55 % 0 in
20:35 73 °F 61 °F 29.8 in Calm   1 mph 66 % 0 in
20:37 77.2 °F 60.3 °F 29.8 in ESE 5.8 mph 5.8 mph 56 % 0 in
20:43 77 °F 60.6 °F 29.8 in East 6.9 mph 6.9 mph 57 % 0 in
20:45 73 °F 61 °F 29.8 in Calm   1 mph 66 % 0 in
20:48 77 °F 60.6 °F 29.8 in SE 5.8 mph 5.8 mph 57 % 0 in
20:53 76.6 °F 60.8 °F 29.8 in ENE 6.9 mph 6.9 mph 58 % 0 in
20:55 72.9 °F 60.8 °F 29.8 in Calm     66 % 0 in
20:58 76.8 °F 61 °F 29.8 in ESE 7.4 mph 7.4 mph 58 % 0 in
21:03 76.5 °F 60.6 °F 29.8 in SE 8.1 mph 8.1 mph 58 % 0 in
21:05 72.5 °F 60.4 °F 29.8 in Calm     66 % 0 in
21:08 76.3 °F 60.4 °F 29.8 in ENE 9.2 mph 9.2 mph 58 % 0 in
21:13 76.3 °F 60.4 °F 29.8 in ENE 6.9 mph 6.9 mph 58 % 0 in
21:15 72.3 °F 60.3 °F 29.8 in Calm     66 % 0 in
21:18 76.1 °F 60.6 °F 29.8 in ENE 5.8 mph 5.8 mph 59 % 0 in
21:23 75.9 °F 60.6 °F 29.8 in ESE 7.6 mph 7.6 mph 59 % 0 in
21:25 72.3 °F 60.3 °F 29.8 in Calm     66 % 0 in
21:28 75.6 °F 60.3 °F 29.8 in SSE 6.9 mph 6.9 mph 59 % 0 in
21:33 75.6 °F 60.3 °F 29.8 in East 4.6 mph 4.6 mph 59 % 0 in
21:35 72 °F 60.4 °F 29.8 in Calm   1 mph 67 % 0 in
21:38 75.4 °F 60.1 °F 29.8 in ENE 5.8 mph 5.8 mph 59 % 0 in
21:43 75.6 °F 60.3 °F 29.8 in South 4.6 mph 4.6 mph 59 % 0 in
21:45 71.4 °F 60.3 °F 29.8 in SW 1 mph 2 mph 68 % 0 in
21:48 75.4 °F 60.1 °F 29.8 in ESE 5.8 mph 5.8 mph 59 % 0 in
21:53 75.2 °F 59.9 °F 29.8 in ESE 5.8 mph 5.9 mph 59 % 0 in
21:55 71.1 °F 60.1 °F 29.8 in SW 1 mph 2 mph 68 % 0 in
21:58 75.2 °F 59.9 °F 29.8 in ESE 4.6 mph 4.6 mph 59 % 0 in
22:03 75.2 °F 59.9 °F 29.8 in ESE 3.5 mph 3.5 mph 59 % 0 in
22:05 70.7 °F 60.1 °F 29.8 in WSW 1 mph 2 mph 69 % 0 in
22:08 75.2 °F 59.9 °F 29.8 in ESE 2.3 mph 2.3 mph 59 % 0 in
22:14 75 °F 60.3 °F 29.8 in SE 5.8 mph 5.8 mph 60 % 0 in
22:15 70.7 °F 60.1 °F 29.8 in Calm   2 mph 69 % 0 in
22:19 75 °F 60.3 °F 29.8 in SE 3.5 mph 3.5 mph 60 % 0 in
22:24 74.8 °F 60.1 °F 29.8 in WSW 2.3 mph 2.3 mph 60 % 0 in
22:25 70.7 °F 60.4 °F 29.8 in West 1 mph 1 mph 70 % 0 in
22:29 74.8 °F 60.1 °F 29.8 in SE 3.5 mph 3.5 mph 60 % 0 in
22:34 74.8 °F 60.4 °F 29.8 in SE 2.3 mph 2.3 mph 61 % 0 in
22:39 74.7 °F 60.3 °F 29.8 in East 3.6 mph 3.6 mph 61 % 0 in
22:44 74.7 °F 60.8 °F 29.8 in ESE 3.5 mph 3.5 mph 62 % 0 in
22:45 70.7 °F 60.4 °F 29.8 in ENE 1 mph   70 % 0 in
22:49 74.7 °F 60.8 °F 29.8 in SSW 2.3 mph 2.3 mph 62 % 0 in
22:55 74.5 °F 60.6 °F 29.8 in Calm   2 mph 62 % 0 in
23:00 74.5 °F 60.6 °F 29.8 in SSE 1 mph 3 mph 62 % 0 in
23:05 74.5 °F 60.6 °F 29.8 in ENE 3.1 mph   62 % 0 in
23:10 74.5 °F 61.2 °F 29.8 in ESE 3.5 mph 3.5 mph 63 % 0 in
23:15 74.3 °F 61 °F 29.8 in SSE 2.4 mph 2.4 mph 63 % 0 in
23:20 74.3 °F 61 °F 29.8 in SSW 2.3 mph   63 % 0 in
23:25 74.1 °F 60.3 °F 29.8 in SW 2.3 mph 2.3 mph 62 % 0 in
23:30 73.9 °F 60.4 °F 29.8 in SW 2.3 mph 2.3 mph 63 % 0 in
23:35 73.8 °F 60.4 °F 29.8 in Calm   2 mph 63 % 0 in
23:40 73.8 °F 60.4 °F 29.8 in WSW 2.3 mph 2.3 mph 63 % 0 in
23:45 73.8 °F 60.4 °F 29.8 in SE 1.6 mph 1.6 mph 63 % 0 in
23:50 73.8 °F 60.4 °F 29.8 in Calm   1 mph 63 % 0 in
23:55 73.8 °F 60.8 °F 29.8 in ENE 2.2 mph 2.2 mph 64 % 0 in
Meteo Sesrovires
Elogis d' Weather Underground - 3.75 mb

Guio original per  Jim McMurry - jmcmurry@mwt.net Adaptat per a la plantilla per  Wim van der Kuil - Leuven-Template.eu

Trobareu la nostra informacio del temps tambe a:

Weather Underground

AWEKAS